createdAt,value
2023-11-27T00:00:37.693Z,1.11
2023-11-27T00:03:08.094Z,1.07
2023-11-27T00:05:35.392Z,1.10
2023-11-27T00:08:02.548Z,1.14
2023-11-27T00:10:29.532Z,1.16
2023-11-27T00:13:01.249Z,1.20
2023-11-27T00:15:28.862Z,1.18
2023-11-27T00:17:55.982Z,1.12
2023-11-27T00:20:23.407Z,1.13
2023-11-27T00:22:50.179Z,1.12
2023-11-27T00:25:17.317Z,1.16
2023-11-27T00:27:44.396Z,1.08
2023-11-27T00:30:11.951Z,1.10
2023-11-27T00:32:38.851Z,1.11
2023-11-27T00:35:06.304Z,1.06
2023-11-27T00:37:33.686Z,1.13
2023-11-27T00:40:00.598Z,1.14
2023-11-27T00:42:27.461Z,1.22
2023-11-27T00:44:54.499Z,1.22
2023-11-27T00:47:21.386Z,1.18
2023-11-27T00:49:48.347Z,1.16
2023-11-27T00:52:15.726Z,1.11
2023-11-27T00:54:42.686Z,1.07
2023-11-27T00:57:10.128Z,1.23
2023-11-27T00:59:41.925Z,1.26
2023-11-27T01:02:09.276Z,1.21
2023-11-27T01:04:40.524Z,1.30
2023-11-27T01:07:07.773Z,1.29
2023-11-27T01:09:37.202Z,1.30
2023-11-27T01:12:04.480Z,1.34
2023-11-27T01:14:32.348Z,1.29
2023-11-27T01:17:00.092Z,1.32
2023-11-27T01:19:27.624Z,1.33
2023-11-27T01:21:54.743Z,1.30
2023-11-27T01:24:24.323Z,1.35
2023-11-27T01:26:53.553Z,1.35
2023-11-27T01:29:23.434Z,1.44
2023-11-27T01:31:50.496Z,1.41
2023-11-27T01:34:18.116Z,1.37
2023-11-27T01:36:45.739Z,1.36
2023-11-27T01:39:12.535Z,1.38
2023-11-27T01:41:40.060Z,1.30
2023-11-27T01:44:07.322Z,1.33
2023-11-27T01:46:34.920Z,1.35
2023-11-27T01:49:02.235Z,1.27
2023-11-27T01:51:30.994Z,1.31
2023-11-27T01:54:01.064Z,1.41
2023-11-27T01:56:29.958Z,1.22
2023-11-27T01:58:58.662Z,1.26
2023-11-27T02:01:27.180Z,1.16
2023-11-27T02:03:54.117Z,1.25
2023-11-27T02:06:21.000Z,1.15
2023-11-27T02:08:47.924Z,1.16
2023-11-27T02:11:20.144Z,1.14
2023-11-27T02:13:47.511Z,1.14
2023-11-27T02:16:15.404Z,1.15
2023-11-27T02:18:43.254Z,1.10
2023-11-27T02:21:11.967Z,1.17
2023-11-27T02:23:39.769Z,1.16
2023-11-27T02:26:07.514Z,1.20
2023-11-27T02:28:34.427Z,1.17
2023-11-27T02:31:01.531Z,1.14
2023-11-27T02:33:28.575Z,1.09
2023-11-27T02:35:55.410Z,1.13
2023-11-27T02:38:22.427Z,1.20
2023-11-27T02:40:49.341Z,1.18
2023-11-27T02:43:16.266Z,1.24
2023-11-27T02:45:43.725Z,1.15
2023-11-27T02:48:10.677Z,1.14
2023-11-27T02:50:37.997Z,1.19
2023-11-27T02:53:04.769Z,1.16
2023-11-27T02:55:31.561Z,1.08
2023-11-27T02:57:58.451Z,1.10
2023-11-27T03:00:25.305Z,1.10
2023-11-27T03:02:52.173Z,1.11
2023-11-27T03:05:19.146Z,1.15
2023-11-27T03:07:46.239Z,1.15
2023-11-27T03:10:14.674Z,1.13
2023-11-27T03:12:42.758Z,1.12
2023-11-27T03:15:09.923Z,1.15
2023-11-27T03:17:42.470Z,1.18
2023-11-27T03:20:12.631Z,1.19
2023-11-27T03:22:42.706Z,1.20
2023-11-27T03:25:10.334Z,1.25
2023-11-27T03:27:37.381Z,1.24
2023-11-27T03:30:05.965Z,1.22
2023-11-27T03:32:33.766Z,1.29
2023-11-27T03:35:01.606Z,1.23
2023-11-27T03:37:30.353Z,1.26
2023-11-27T03:39:57.340Z,1.25
2023-11-27T03:42:24.240Z,1.24
2023-11-27T03:44:51.013Z,1.24
2023-11-27T03:47:17.897Z,1.26
2023-11-27T03:49:44.865Z,1.31
2023-11-27T03:52:12.956Z,1.24
2023-11-27T03:54:39.802Z,1.25
2023-11-27T03:57:07.135Z,1.21
2023-11-27T03:59:34.267Z,1.23
2023-11-27T04:02:01.694Z,1.15
2023-11-27T04:04:28.608Z,1.00
2023-11-27T04:06:55.853Z,1.07
2023-11-27T04:09:23.152Z,1.06
2023-11-27T04:11:50.387Z,0.97
2023-11-27T04:14:17.314Z,0.99
2023-11-27T04:16:44.795Z,1.01
2023-11-27T04:19:11.828Z,1.01
2023-11-27T04:21:39.122Z,1.16
2023-11-27T04:24:06.796Z,1.10
2023-11-27T04:26:33.810Z,1.13
2023-11-27T04:29:01.191Z,1.04
2023-11-27T04:31:28.090Z,1.01
2023-11-27T04:33:54.888Z,0.96
2023-11-27T04:36:22.785Z,0.98
2023-11-27T04:38:49.918Z,0.98
2023-11-27T04:41:17.992Z,0.89
2023-11-27T04:43:44.898Z,0.87
2023-11-27T04:46:12.650Z,0.87
2023-11-27T04:48:39.629Z,0.91
2023-11-27T04:51:06.998Z,0.85
2023-11-27T04:53:34.179Z,0.86
2023-11-27T04:56:01.196Z,0.96
2023-11-27T04:58:29.694Z,0.96
2023-11-27T05:00:56.975Z,0.91
2023-11-27T05:03:24.002Z,0.85
2023-11-27T05:05:50.882Z,0.84
2023-11-27T05:08:17.652Z,0.82
2023-11-27T05:10:45.879Z,0.78
2023-11-27T05:13:13.969Z,0.78
2023-11-27T05:15:40.779Z,0.78
2023-11-27T05:18:07.552Z,0.83
2023-11-27T05:20:34.702Z,0.88
2023-11-27T05:23:04.827Z,0.89
2023-11-27T05:25:31.646Z,0.87
2023-11-27T05:27:58.511Z,0.87
2023-11-27T05:30:25.676Z,0.90
2023-11-27T05:32:53.400Z,0.84
2023-11-27T05:35:20.403Z,0.88
2023-11-27T05:37:47.272Z,0.92
2023-11-27T05:40:15.055Z,0.83
2023-11-27T05:42:42.169Z,0.81
2023-11-27T05:45:12.137Z,0.84
2023-11-27T05:47:42.348Z,0.81
2023-11-27T05:50:15.904Z,0.82
2023-11-27T05:52:42.826Z,0.80
2023-11-27T05:55:10.405Z,0.85
2023-11-27T05:57:37.856Z,0.76
2023-11-27T06:00:05.224Z,0.79
2023-11-27T06:02:39.285Z,0.80
2023-11-27T06:05:07.120Z,0.81
2023-11-27T06:07:35.043Z,0.85
2023-11-27T06:10:04.148Z,0.87
2023-11-27T06:12:31.251Z,0.91
2023-11-27T06:14:58.043Z,0.82
2023-11-27T06:17:24.890Z,0.88
2023-11-27T06:19:51.744Z,0.91
2023-11-27T06:22:18.566Z,0.95
2023-11-27T06:24:45.534Z,0.91
2023-11-27T06:27:12.347Z,0.88
2023-11-27T06:29:39.188Z,0.88
2023-11-27T06:32:06.350Z,0.96
2023-11-27T06:34:33.349Z,1.03
2023-11-27T06:37:00.188Z,1.09
2023-11-27T06:39:29.911Z,1.21
2023-11-27T06:41:56.649Z,1.32
2023-11-27T06:44:23.762Z,1.31
2023-11-27T06:46:50.721Z,1.38
2023-11-27T06:49:17.641Z,1.40
2023-11-27T06:51:44.492Z,1.43
2023-11-27T06:54:11.443Z,1.47
2023-11-27T06:56:38.525Z,1.62
2023-11-27T06:59:05.872Z,1.60
2023-11-27T07:01:33.582Z,1.59
2023-11-27T07:04:01.717Z,1.51
2023-11-27T07:06:29.068Z,1.49
2023-11-27T07:08:56.004Z,1.50
2023-11-27T07:11:26.292Z,1.50
2023-11-27T07:13:53.354Z,1.44
2023-11-27T07:16:20.557Z,1.35
2023-11-27T07:18:48.015Z,1.37
2023-11-27T07:21:15.068Z,1.40
2023-11-27T07:23:42.716Z,1.44
2023-11-27T07:26:09.704Z,1.49
2023-11-27T07:28:39.835Z,1.39
2023-11-27T07:31:06.834Z,1.42
2023-11-27T07:33:35.256Z,1.41
2023-11-27T07:36:02.065Z,1.45
2023-11-27T07:38:29.679Z,1.53
2023-11-27T07:40:57.414Z,1.54
2023-11-27T07:43:24.255Z,1.58
2023-11-27T07:45:51.170Z,1.65
2023-11-27T07:48:19.766Z,1.66
2023-11-27T07:50:47.072Z,1.75
2023-11-27T07:53:13.841Z,1.74
2023-11-27T07:55:41.505Z,1.73
2023-11-27T07:58:08.728Z,1.74
2023-11-27T08:00:35.556Z,1.81
2023-11-27T08:03:02.256Z,1.84
2023-11-27T08:05:30.952Z,1.89
2023-11-27T08:07:58.032Z,1.83
2023-11-27T08:10:25.109Z,1.81
2023-11-27T08:13:28.728Z,1.79
2023-11-27T08:15:55.585Z,1.78
2023-11-27T08:18:22.416Z,1.73
2023-11-27T08:20:51.277Z,1.75
2023-11-27T08:23:18.150Z,1.81
2023-11-27T08:25:47.960Z,1.88
2023-11-27T08:28:14.914Z,1.97
2023-11-27T08:30:43.264Z,2.06
2023-11-27T08:33:10.373Z,2.09
2023-11-27T08:35:37.262Z,2.17
2023-11-27T08:38:05.633Z,2.29
2023-11-27T08:40:32.767Z,2.37
2023-11-27T08:43:01.648Z,2.42
2023-11-27T08:45:28.680Z,2.41
2023-11-27T08:47:56.944Z,2.48
2023-11-27T08:50:26.490Z,2.53
2023-11-27T08:52:59.987Z,2.61
2023-11-27T08:55:32.828Z,2.76
2023-11-27T08:58:04.822Z,2.86
2023-11-27T09:00:32.460Z,2.93
2023-11-27T09:03:01.514Z,2.97
2023-11-27T09:05:33.392Z,3.04
2023-11-27T09:08:06.258Z,3.12
2023-11-27T09:10:34.716Z,3.24
2023-11-27T09:13:01.716Z,3.26
2023-11-27T09:15:28.667Z,3.28
2023-11-27T09:17:55.470Z,3.33
2023-11-27T09:20:22.364Z,3.37
2023-11-27T09:22:49.143Z,3.41
2023-11-27T09:25:16.697Z,3.38
2023-11-27T09:27:43.861Z,3.43
2023-11-27T09:30:11.737Z,3.53
2023-11-27T09:32:39.542Z,3.62
2023-11-27T09:35:16.819Z,3.74
2023-11-27T09:37:44.163Z,3.83
2023-11-27T09:40:14.051Z,3.84
2023-11-27T09:42:47.101Z,3.89
2023-11-27T09:45:20.555Z,3.96
2023-11-27T09:47:52.484Z,3.99
2023-11-27T09:50:22.032Z,4.05
2023-11-27T09:53:00.994Z,4.15
2023-11-27T09:55:33.451Z,4.25
2023-11-27T09:58:00.982Z,4.38
2023-11-27T10:00:29.097Z,4.36
2023-11-27T10:02:57.000Z,4.26
2023-11-27T10:05:24.197Z,4.31
2023-11-27T10:07:52.592Z,4.38
2023-11-27T10:10:27.650Z,4.36
2023-11-27T10:12:59.415Z,4.38
2023-11-27T10:15:27.992Z,4.33
2023-11-27T10:17:57.547Z,4.34
2023-11-27T10:20:30.163Z,4.38
2023-11-27T10:23:00.262Z,4.43
2023-11-27T10:25:27.103Z,4.62
2023-11-27T10:28:01.917Z,4.71
2023-11-27T10:30:32.920Z,4.92
2023-11-27T10:33:00.649Z,5.07
2023-11-27T10:35:28.005Z,5.23
2023-11-27T10:37:56.209Z,5.25
2023-11-27T10:40:28.107Z,5.23
2023-11-27T10:43:02.517Z,5.26
2023-11-27T10:45:31.463Z,5.12
2023-11-27T10:48:03.779Z,5.12
2023-11-27T10:50:34.560Z,5.05
2023-11-27T10:53:01.789Z,5.01
2023-11-27T10:55:30.726Z,5.00
2023-11-27T10:57:58.869Z,4.98
2023-11-27T11:00:40.569Z,5.01
2023-11-27T11:03:16.288Z,4.91
2023-11-27T11:05:51.208Z,4.87
2023-11-27T11:08:23.713Z,5.04
2023-11-27T11:10:50.741Z,5.05
2023-11-27T11:13:19.234Z,5.07
2023-11-27T11:16:12.861Z,5.13
2023-11-27T11:18:52.834Z,5.32
2023-11-27T11:21:23.449Z,5.42
2023-11-27T11:24:03.457Z,5.51
2023-11-27T11:26:50.002Z,5.63
2023-11-27T11:29:34.293Z,5.70
2023-11-27T11:32:09.906Z,5.96
2023-11-27T11:34:39.677Z,6.53
2023-11-27T11:37:08.536Z,6.98
2023-11-27T11:39:35.701Z,7.40
2023-11-27T11:42:14.635Z,7.71
2023-11-27T11:44:42.841Z,7.95
2023-11-27T11:47:30.143Z,8.34
2023-11-27T11:50:26.935Z,8.61
2023-11-27T11:52:56.856Z,8.52
2023-11-27T11:55:34.877Z,8.32
2023-11-27T11:58:07.605Z,7.71
2023-11-27T12:00:45.434Z,7.50
2023-11-27T12:03:24.803Z,7.31
2023-11-27T12:05:56.633Z,7.16
2023-11-27T12:08:25.803Z,6.97
2023-11-27T12:10:57.207Z,6.87
2023-11-27T12:13:25.959Z,6.96
2023-11-27T12:15:54.196Z,7.30
2023-11-27T12:18:21.543Z,7.45
2023-11-27T12:20:50.179Z,7.22
2023-11-27T12:23:18.633Z,7.03
2023-11-27T12:25:45.711Z,6.86
2023-11-27T12:28:14.283Z,6.74
2023-11-27T12:30:41.803Z,6.67
2023-11-27T12:33:10.065Z,6.65
2023-11-27T12:35:38.710Z,6.58
2023-11-27T12:38:09.565Z,6.56
2023-11-27T12:40:37.181Z,6.57
2023-11-27T12:43:08.487Z,6.57
2023-11-27T12:45:36.926Z,6.50
2023-11-27T12:48:09.918Z,6.54
2023-11-27T12:50:42.396Z,6.55
2023-11-27T12:53:10.216Z,6.56
2023-11-27T12:55:49.907Z,6.62
2023-11-27T12:58:22.382Z,6.61
2023-11-27T13:00:49.816Z,6.59
2023-11-27T13:03:21.162Z,6.57
2023-11-27T13:05:53.524Z,6.56
2023-11-27T13:08:33.944Z,6.52
2023-11-27T13:11:06.126Z,6.48
2023-11-27T13:13:33.109Z,6.44
2023-11-27T13:16:03.911Z,6.44
2023-11-27T13:18:33.419Z,6.44
2023-11-27T13:21:01.046Z,6.53
2023-11-27T13:23:28.524Z,6.56
2023-11-27T13:26:18.190Z,6.57
2023-11-27T13:28:45.170Z,6.60
2023-11-27T13:31:17.240Z,6.58
2023-11-27T13:33:44.471Z,6.65
2023-11-27T13:36:19.932Z,6.62
2023-11-27T13:38:48.490Z,6.59
2023-11-27T13:41:16.163Z,6.63
2023-11-27T13:43:43.442Z,6.63
2023-11-27T13:46:11.801Z,6.56
2023-11-27T13:48:39.108Z,6.58
2023-11-27T13:51:15.674Z,6.51
2023-11-27T13:53:43.712Z,6.50
2023-11-27T13:56:11.528Z,6.47
2023-11-27T13:58:38.455Z,6.43
2023-11-27T14:01:12.207Z,6.33
2023-11-27T14:03:43.458Z,6.19
2023-11-27T14:06:26.627Z,6.12
2023-11-27T14:08:55.280Z,6.13
2023-11-27T14:11:34.034Z,6.07
2023-11-27T14:14:07.336Z,5.93
2023-11-27T14:16:43.714Z,6.05
2023-11-27T14:19:13.609Z,5.91
2023-11-27T14:22:10.264Z,5.84
2023-11-27T14:25:06.465Z,5.80
2023-11-27T14:27:43.111Z,5.72
2023-11-27T14:30:14.919Z,5.69
2023-11-27T14:32:42.524Z,5.67
2023-11-27T14:35:09.438Z,5.60
2023-11-27T14:37:36.607Z,5.52
2023-11-27T14:40:18.874Z,5.46
2023-11-27T14:42:46.342Z,5.43
2023-11-27T14:45:16.326Z,5.39
2023-11-27T14:47:47.168Z,5.39
2023-11-27T14:50:21.770Z,5.30
2023-11-27T14:52:51.189Z,5.24
2023-11-27T14:55:20.946Z,5.23
2023-11-27T14:57:49.583Z,5.19
2023-11-27T15:00:28.811Z,5.16
2023-11-27T15:02:56.833Z,5.11
2023-11-27T15:05:23.784Z,5.07
2023-11-27T15:07:50.681Z,4.95
2023-11-27T15:10:18.331Z,4.93
2023-11-27T15:12:46.543Z,4.95
2023-11-27T15:15:15.846Z,4.91
2023-11-27T15:17:42.716Z,4.88
2023-11-27T15:20:13.930Z,4.87
2023-11-27T15:22:40.844Z,4.90
2023-11-27T15:25:09.368Z,4.84
2023-11-27T15:27:39.378Z,4.83
2023-11-27T15:30:10.242Z,4.84
2023-11-27T15:32:37.261Z,4.75
2023-11-27T15:35:05.319Z,4.73
2023-11-27T15:37:32.274Z,4.67
2023-11-27T15:39:59.839Z,4.66
2023-11-27T15:42:28.487Z,4.66
2023-11-27T15:44:55.715Z,4.64
2023-11-27T15:47:24.106Z,4.59
2023-11-27T15:49:51.113Z,4.68
2023-11-27T15:52:18.251Z,4.62
2023-11-27T15:54:45.173Z,4.58
2023-11-27T15:57:12.183Z,4.60
2023-11-27T15:59:44.473Z,4.55
2023-11-27T16:02:13.258Z,4.53
2023-11-27T16:04:40.371Z,4.56
2023-11-27T16:07:07.291Z,4.66
2023-11-27T16:09:34.637Z,4.67
2023-11-27T16:12:01.515Z,4.75
2023-11-27T16:14:30.483Z,4.70
2023-11-27T16:16:57.355Z,4.70
2023-11-27T16:19:25.384Z,4.69
2023-11-27T16:21:52.233Z,4.69
2023-11-27T16:24:19.435Z,4.79
2023-11-27T16:26:48.701Z,4.77
2023-11-27T16:29:18.353Z,4.79
2023-11-27T16:31:49.253Z,4.76
2023-11-27T16:34:16.505Z,4.75
2023-11-27T16:36:43.546Z,4.74
2023-11-27T16:39:14.457Z,4.73
2023-11-27T16:41:41.994Z,4.68
2023-11-27T16:44:08.914Z,4.70
2023-11-27T16:46:36.014Z,4.73
2023-11-27T16:49:02.924Z,4.71
2023-11-27T16:51:29.687Z,4.67
2023-11-27T16:53:56.452Z,4.73
2023-11-27T16:56:25.861Z,4.71
2023-11-27T16:58:52.862Z,4.68
2023-11-27T17:01:21.169Z,4.64
2023-11-27T17:03:50.391Z,4.62
2023-11-27T17:06:19.697Z,4.62
2023-11-27T17:08:47.700Z,4.67
2023-11-27T17:11:16.087Z,4.67
2023-11-27T17:13:45.892Z,4.70
2023-11-27T17:16:13.795Z,4.62
2023-11-27T17:18:40.706Z,4.56
2023-11-27T17:21:08.331Z,4.55
2023-11-27T17:23:36.990Z,4.47
2023-11-27T17:26:03.978Z,4.64
2023-11-27T17:28:32.081Z,4.65
2023-11-27T17:30:58.999Z,4.57
2023-11-27T17:33:25.733Z,4.52
2023-11-27T17:35:52.901Z,4.56
2023-11-27T17:38:19.869Z,4.51
2023-11-27T17:40:46.800Z,4.47
2023-11-27T17:43:17.789Z,4.53
2023-11-27T17:45:47.565Z,4.53
2023-11-27T17:48:17.535Z,4.49
2023-11-27T17:50:44.451Z,4.51
2023-11-27T17:53:11.580Z,4.64
2023-11-27T17:55:45.748Z,4.66
2023-11-27T17:58:19.270Z,4.63
2023-11-27T18:00:47.694Z,4.64
2023-11-27T18:03:15.552Z,4.63
2023-11-27T18:05:42.332Z,4.56
2023-11-27T18:08:13.218Z,4.64
2023-11-27T18:10:40.475Z,4.59
2023-11-27T18:13:07.405Z,4.55
2023-11-27T18:15:34.253Z,4.50
2023-11-27T18:18:01.481Z,4.50
2023-11-27T18:20:29.298Z,4.51
2023-11-27T18:22:56.067Z,4.50
2023-11-27T18:25:24.541Z,4.52
2023-11-27T18:28:00.867Z,4.50
2023-11-27T18:30:29.035Z,4.59
2023-11-27T18:32:55.971Z,4.53
2023-11-27T18:35:24.036Z,4.66
2023-11-27T18:37:50.787Z,4.71
2023-11-27T18:40:19.084Z,4.60
2023-11-27T18:42:49.282Z,4.62
2023-11-27T18:45:22.631Z,4.58
2023-11-27T18:47:50.699Z,4.56
2023-11-27T18:50:17.535Z,4.61
2023-11-27T18:52:44.506Z,4.64
2023-11-27T18:55:12.035Z,4.59
2023-11-27T18:57:39.033Z,4.68
2023-11-27T19:00:07.652Z,4.65
2023-11-27T19:02:34.774Z,4.64
2023-11-27T19:05:01.933Z,4.57
2023-11-27T19:07:29.147Z,4.68
2023-11-27T19:09:56.347Z,4.66
2023-11-27T19:12:23.393Z,4.61
2023-11-27T19:14:53.213Z,4.66
2023-11-27T19:17:21.461Z,4.64
2023-11-27T19:19:48.478Z,4.65
2023-11-27T19:22:15.355Z,4.60
2023-11-27T19:24:43.321Z,4.53
2023-11-27T19:27:10.180Z,4.55
2023-11-27T19:29:37.259Z,4.53
2023-11-27T19:32:04.432Z,4.59
2023-11-27T19:34:32.815Z,4.50
2023-11-27T19:36:59.873Z,4.49
2023-11-27T19:39:26.767Z,4.55
2023-11-27T19:41:53.793Z,4.53
2023-11-27T19:44:21.643Z,4.54
2023-11-27T19:46:51.812Z,4.62
2023-11-27T19:49:20.923Z,4.63
2023-11-27T19:51:48.279Z,4.67
2023-11-27T19:54:19.683Z,4.65
2023-11-27T19:56:47.594Z,4.76
2023-11-27T19:59:14.377Z,4.72
2023-11-27T20:01:41.483Z,4.72
2023-11-27T20:04:08.408Z,4.75
2023-11-27T20:06:40.748Z,4.85
2023-11-27T20:09:12.835Z,4.77
2023-11-27T20:11:40.212Z,4.79
2023-11-27T20:14:08.001Z,4.77
2023-11-27T20:16:36.648Z,4.89
2023-11-27T20:19:06.523Z,4.83
2023-11-27T20:21:33.756Z,4.86
2023-11-27T20:24:00.933Z,4.82
2023-11-27T20:26:29.601Z,4.88
2023-11-27T20:29:02.362Z,4.92
2023-11-27T20:31:36.206Z,4.91
2023-11-27T20:34:04.928Z,4.86
2023-11-27T20:36:32.195Z,4.92
2023-11-27T20:39:01.227Z,4.90
2023-11-27T20:41:28.409Z,4.81
2023-11-27T20:43:59.529Z,4.77
2023-11-27T20:46:28.753Z,4.72
2023-11-27T20:48:59.605Z,4.73
2023-11-27T20:51:30.662Z,4.74
2023-11-27T20:53:58.094Z,4.80
2023-11-27T20:56:26.760Z,4.83
2023-11-27T20:58:53.760Z,4.83
2023-11-27T21:01:24.388Z,4.73
2023-11-27T21:03:52.896Z,4.85
2023-11-27T21:06:26.323Z,4.82
2023-11-27T21:08:53.744Z,4.80
2023-11-27T21:11:24.146Z,4.80
2023-11-27T21:13:52.788Z,4.79
2023-11-27T21:16:21.581Z,4.75
2023-11-27T21:18:49.420Z,4.74
2023-11-27T21:21:16.322Z,4.71
2023-11-27T21:23:43.990Z,4.73
2023-11-27T21:26:13.495Z,4.65
2023-11-27T21:28:42.643Z,4.65
2023-11-27T21:31:10.605Z,4.64
2023-11-27T21:33:38.010Z,4.64
2023-11-27T21:36:04.994Z,4.71
2023-11-27T21:38:31.871Z,4.67
2023-11-27T21:40:58.934Z,4.75
2023-11-27T21:43:25.830Z,4.74
2023-11-27T21:45:54.317Z,4.76
2023-11-27T21:48:21.615Z,4.76
2023-11-27T21:50:48.465Z,4.76
2023-11-27T21:53:16.541Z,4.70
2023-11-27T21:55:43.532Z,4.68
2023-11-27T21:58:10.526Z,4.74
2023-11-27T22:00:37.481Z,4.74
2023-11-27T22:03:04.634Z,4.67
2023-11-27T22:05:31.527Z,4.80
2023-11-27T22:07:58.585Z,4.73
2023-11-27T22:10:25.470Z,4.78
2023-11-27T22:12:52.341Z,4.80
2023-11-27T22:15:19.330Z,4.77
2023-11-27T22:17:46.243Z,4.84
2023-11-27T22:20:13.454Z,4.86
2023-11-27T22:22:41.754Z,4.86
2023-11-27T22:25:09.572Z,4.86
2023-11-27T22:27:37.565Z,4.83
2023-11-27T22:30:06.517Z,4.80
2023-11-27T22:32:33.872Z,4.83
2023-11-27T22:35:00.770Z,4.83
2023-11-27T22:37:27.578Z,4.79
2023-11-27T22:39:54.628Z,4.89
2023-11-27T22:42:21.403Z,4.94
2023-11-27T22:44:48.352Z,4.96
2023-11-27T22:47:15.312Z,5.00
2023-11-27T22:49:43.096Z,5.02
2023-11-27T22:52:09.856Z,5.07
2023-11-27T22:54:43.015Z,5.07
2023-11-27T22:57:10.708Z,5.03
2023-11-27T22:59:39.954Z,5.04
2023-11-27T23:02:08.087Z,5.08
2023-11-27T23:04:35.841Z,5.10
2023-11-27T23:07:02.806Z,5.19
2023-11-27T23:09:29.620Z,5.22
2023-11-27T23:11:56.416Z,5.28
2023-11-27T23:14:24.183Z,5.35
2023-11-27T23:16:51.123Z,5.34
2023-11-27T23:19:17.818Z,5.38
2023-11-27T23:21:44.998Z,5.41
2023-11-27T23:24:20.207Z,5.41
2023-11-27T23:26:51.383Z,5.36
2023-11-27T23:29:18.497Z,5.50
2023-11-27T23:31:48.415Z,5.40
2023-11-27T23:34:15.290Z,5.47
2023-11-27T23:36:42.370Z,5.52
2023-11-27T23:39:09.806Z,5.52
2023-11-27T23:41:36.780Z,5.58
2023-11-27T23:44:04.229Z,5.61
2023-11-27T23:46:31.536Z,5.72
2023-11-27T23:48:58.793Z,5.74
2023-11-27T23:51:29.353Z,5.81
2023-11-27T23:53:56.488Z,5.76
2023-11-27T23:56:23.427Z,5.91
2023-11-27T23:58:50.568Z,5.98
